Time;durP1;ratioP1;P1;durP2;ratioP2;P2;SDS_P1;SDS_P2;PMS_P1;PMS_P2;Temp;Humidity;BMP_temperature;BMP_pressure;BME280_temperature;BME280_humidity;BME280_pressure;Samples;Min_cycle;Max_cycle;Signal;HPM_P1;HPM_P2
2021/05/21 00:00:49;;;;;;;1.38;0.80;;;13.30;70.90;;;;;;4979431;28;20481;-79
2021/05/21 00:03:15;;;;;;;2.05;0.90;;;13.30;70.90;;;;;;4994092;28;20030;-80
2021/05/21 00:05:40;;;;;;;1.48;0.70;;;13.20;71.10;;;;;;4981687;28;20061;-79
2021/05/21 00:08:09;;;;;;;4.93;0.60;;;13.20;71.30;;;;;;4975405;28;20452;-79
2021/05/21 00:10:35;;;;;;;0.60;0.45;;;13.10;71.30;;;;;;4978878;28;20482;-80
2021/05/21 00:13:00;;;;;;;2.97;0.95;;;13.20;71.20;;;;;;4963289;28;20022;-79
2021/05/21 00:15:26;;;;;;;1.08;0.60;;;13.30;71.00;;;;;;4960821;28;20091;-80
2021/05/21 00:17:51;;;;;;;1.60;0.63;;;13.10;71.40;;;;;;4980486;28;20087;-79
2021/05/21 00:20:17;;;;;;;4.03;0.90;;;13.20;71.40;;;;;;4980452;28;20108;-80
2021/05/21 00:22:42;;;;;;;1.58;0.68;;;13.10;71.50;;;;;;4970470;28;20153;-80
2021/05/21 00:25:08;;;;;;;2.20;1.70;;;13.00;71.60;;;;;;4991350;28;20057;-80
2021/05/21 00:27:34;;;;;;;1.63;0.63;;;13.00;71.60;;;;;;4982423;28;20045;-80
2021/05/21 00:29:59;;;;;;;2.85;0.90;;;13.00;71.50;;;;;;4987859;28;20033;-80
2021/05/21 00:32:25;;;;;;;3.65;1.10;;;13.00;71.40;;;;;;4968408;28;20018;-79
2021/05/21 00:34:50;;;;;;;1.20;0.70;;;13.00;71.50;;;;;;4978375;28;20041;-79
2021/05/21 00:37:16;;;;;;;2.08;0.70;;;13.00;71.60;;;;;;4974404;28;20084;-79
2021/05/21 00:39:41;;;;;;;1.98;0.63;;;13.00;71.60;;;;;;4994967;28;20061;-79
2021/05/21 00:42:08;;;;;;;1.50;0.43;;;13.00;71.80;;;;;;4979685;28;20129;-79
2021/05/21 00:44:33;;;;;;;1.40;0.68;;;12.90;71.60;;;;;;4966581;28;20049;-79
2021/05/21 00:46:59;;;;;;;3.78;0.77;;;12.90;71.80;;;;;;4979195;28;20030;-79
2021/05/21 00:49:24;;;;;;;2.95;0.80;;;12.90;71.70;;;;;;4976350;28;20050;-79
2021/05/21 00:51:50;;;;;;;2.15;0.93;;;12.90;71.90;;;;;;4964268;28;20037;-79
2021/05/21 00:54:16;;;;;;;4.38;1.00;;;12.90;72.00;;;;;;4986593;28;20445;-79
2021/05/21 00:56:41;;;;;;;3.53;1.05;;;12.90;71.80;;;;;;4982107;28;20428;-79
2021/05/21 00:59:07;;;;;;;1.52;0.65;;;12.90;71.80;;;;;;4980518;28;20036;-79
2021/05/21 01:01:32;;;;;;;0.98;0.90;;;12.80;72.30;;;;;;4992055;28;20026;-79
2021/05/21 01:03:58;;;;;;;0.70;0.70;;;12.70;72.50;;;;;;4966701;28;20039;-79
2021/05/21 01:06:24;;;;;;;1.83;0.75;;;12.80;72.40;;;;;;4979741;28;20042;-79
2021/05/21 01:08:49;;;;;;;4.82;1.05;;;12.70;72.50;;;;;;4998506;28;20042;-80
2021/05/21 01:11:15;;;;;;;2.58;0.55;;;12.70;72.70;;;;;;5002429;28;20473;-79
2021/05/21 01:13:40;;;;;;;3.13;0.75;;;12.70;72.70;;;;;;4982035;28;20468;-79
2021/05/21 01:16:06;;;;;;;1.55;0.70;;;12.70;72.60;;;;;;4995223;28;20537;-79
2021/05/21 01:18:31;;;;;;;2.22;0.82;;;12.70;72.90;;;;;;4979988;28;20030;-79
2021/05/21 01:20:57;;;;;;;2.28;0.85;;;12.70;72.80;;;;;;4996425;28;20085;-79
2021/05/21 01:23:23;;;;;;;1.55;0.70;;;12.70;73.10;;;;;;4998180;28;20034;-79
2021/05/21 01:25:48;;;;;;;2.90;1.00;;;12.70;73.40;;;;;;4986527;28;20038;-79
2021/05/21 01:28:15;;;;;;;2.67;0.88;;;12.70;73.00;;;;;;4977797;28;20097;-79
2021/05/21 01:30:41;;;;;;;0.80;0.70;;;12.70;73.20;;;;;;4971255;28;20118;-79
2021/05/21 01:33:09;;;;;;;1.90;1.40;;;12.60;73.20;;;;;;4979580;28;20118;-79
2021/05/21 01:35:34;;;;;;;2.83;0.85;;;12.60;73.10;;;;;;4978696;28;20053;-79
2021/05/21 01:38:00;;;;;;;2.20;0.60;;;12.60;73.60;;;;;;4983581;28;20026;-79
2021/05/21 01:40:26;;;;;;;4.25;1.08;;;12.50;73.70;;;;;;4994172;28;20101;-79
2021/05/21 01:42:51;;;;;;;1.48;0.63;;;12.60;73.70;;;;;;4960812;28;20034;-79
2021/05/21 01:45:17;;;;;;;3.05;0.80;;;12.50;73.80;;;;;;4999851;28;20037;-79
2021/05/21 01:47:43;;;;;;;0.65;0.40;;;12.50;73.60;;;;;;4966965;28;20058;-79
2021/05/21 01:50:10;;;;;;;3.92;1.17;;;12.50;74.00;;;;;;4997608;28;20022;-79
2021/05/21 01:52:37;;;;;;;5.25;0.90;;;12.40;74.00;;;;;;4995581;28;20479;-79
2021/05/21 01:55:03;;;;;;;2.63;0.93;;;12.40;73.80;;;;;;4976764;28;20030;-78
2021/05/21 01:57:29;;;;;;;2.58;0.80;;;12.50;74.00;;;;;;4978557;28;20077;-79
2021/05/21 01:59:54;;;;;;;2.58;0.80;;;12.40;73.90;;;;;;4995292;28;20030;-79
2021/05/21 02:02:20;;;;;;;1.35;0.60;;;12.40;73.80;;;;;;4986829;28;20026;-78
2021/05/21 02:04:45;;;;;;;2.05;0.98;;;12.20;74.60;;;;;;4982273;28;20081;-79
2021/05/21 02:07:13;;;;;;;8.05;1.15;;;12.40;74.20;;;;;;4976103;28;20118;-78
2021/05/21 02:09:52;;;;;;;3.65;1.15;;;12.30;74.50;;;;;;4995123;28;20096;-77
2021/05/21 02:12:17;;;;;;;2.33;0.90;;;12.30;74.20;;;;;;4979543;28;20057;-77
2021/05/21 02:14:43;;;;;;;1.65;0.52;;;12.30;74.50;;;;;;4965020;28;20105;-77
2021/05/21 02:17:08;;;;;;;1.08;0.85;;;12.30;74.70;;;;;;4988877;28;20045;-77
2021/05/21 02:19:34;;;;;;;1.88;1.00;;;12.40;74.50;;;;;;4996366;28;20049;-77
2021/05/21 02:21:59;;;;;;;1.10;0.70;;;12.40;74.60;;;;;;4962369;28;20121;-77
2021/05/21 02:24:25;;;;;;;1.20;0.80;;;12.40;74.50;;;;;;4984208;28;20031;-78
2021/05/21 02:26:51;;;;;;;1.85;0.93;;;12.40;74.60;;;;;;4996853;28;20108;-78
2021/05/21 02:29:17;;;;;;;1.63;0.73;;;12.40;74.50;;;;;;4997549;28;20231;-79
2021/05/21 02:31:43;;;;;;;1.60;0.47;;;12.50;74.40;;;;;;4966780;28;20117;-79
2021/05/21 02:34:08;;;;;;;2.83;1.10;;;12.50;74.50;;;;;;4976386;28;20281;-78
2021/05/21 02:36:34;;;;;;;1.70;1.02;;;12.40;74.70;;;;;;4977105;28;20040;-78
2021/05/21 02:39:00;;;;;;;1.48;0.70;;;12.40;74.70;;;;;;4967927;28;20045;-78
2021/05/21 02:41:26;;;;;;;1.65;0.60;;;12.50;74.50;;;;;;4990947;28;20346;-79
2021/05/21 02:43:51;;;;;;;2.30;0.63;;;12.50;74.50;;;;;;4981219;28;20031;-78
2021/05/21 02:46:17;;;;;;;1.05;0.80;;;12.50;74.80;;;;;;4991275;28;20055;-78
2021/05/21 02:48:42;;;;;;;2.35;0.90;;;12.40;74.70;;;;;;4984505;28;20498;-79
2021/05/21 02:51:08;;;;;;;9.48;0.52;;;12.40;74.70;;;;;;4990483;28;20030;-78
2021/05/21 02:53:33;;;;;;;1.83;0.88;;;12.50;74.80;;;;;;4984949;28;20080;-78
2021/05/21 02:55:59;;;;;;;2.80;1.02;;;12.50;74.80;;;;;;4993155;28;20116;-78
2021/05/21 02:58:24;;;;;;;1.63;0.80;;;12.50;74.80;;;;;;4979023;28;20038;-78
2021/05/21 03:00:50;;;;;;;1.08;0.65;;;12.50;74.60;;;;;;4952966;28;20034;-78
2021/05/21 03:03:15;;;;;;;0.98;0.63;;;12.50;75.00;;;;;;4967056;28;20026;-78
2021/05/21 03:05:41;;;;;;;4.07;1.13;;;12.40;74.90;;;;;;4978521;28;20547;-78
2021/05/21 03:08:06;;;;;;;2.17;0.90;;;12.40;75.20;;;;;;4975059;28;20026;-78
2021/05/21 03:10:32;;;;;;;4.55;1.10;;;12.40;75.30;;;;;;4976955;28;20093;-78
2021/05/21 03:12:57;;;;;;;1.00;0.80;;;12.40;75.10;;;;;;4962732;28;20030;-78
2021/05/21 03:15:25;;;;;;;4.57;2.05;;;12.40;75.30;;;;;;4987634;28;20201;-78
2021/05/21 03:17:51;;;;;;;0.80;0.65;;;12.40;75.40;;;;;;4964082;28;20037;-78
2021/05/21 03:20:16;;;;;;;3.70;1.20;;;12.40;75.10;;;;;;4977550;28;20423;-78
2021/05/21 03:22:42;;;;;;;3.72;0.88;;;12.50;75.20;;;;;;4970873;28;20371;-78
2021/05/21 03:25:08;;;;;;;4.78;1.05;;;12.50;75.10;;;;;;4959301;28;20027;-78
2021/05/21 03:27:34;;;;;;;3.00;1.00;;;12.40;75.20;;;;;;4975066;28;20037;-78
2021/05/21 03:29:59;;;;;;;3.28;1.00;;;12.40;75.40;;;;;;4976597;28;20030;-78
2021/05/21 03:32:25;;;;;;;3.22;0.77;;;12.40;75.50;;;;;;4953952;28;20048;-78
2021/05/21 03:34:51;;;;;;;3.88;0.90;;;12.50;75.50;;;;;;4991490;28;20468;-78
2021/05/21 03:37:16;;;;;;;2.47;0.98;;;12.40;75.40;;;;;;4973907;28;20038;-78
2021/05/21 03:39:42;;;;;;;3.33;0.77;;;12.40;75.70;;;;;;4961871;28;20066;-78
2021/05/21 03:42:08;;;;;;;1.00;0.70;;;12.20;75.80;;;;;;4990035;28;20161;-78
2021/05/21 03:44:33;;;;;;;3.38;0.95;;;12.30;75.80;;;;;;4984007;28;20053;-78
2021/05/21 03:47:02;;;;;;;0.75;0.40;;;12.30;75.80;;;;;;4971341;28;20034;-78
2021/05/21 03:49:28;;;;;;;1.15;0.70;;;12.30;76.00;;;;;;4996538;28;20544;-78
2021/05/21 03:51:54;;;;;;;3.70;0.82;;;12.30;75.80;;;;;;4945726;28;20483;-79
2021/05/21 03:54:20;;;;;;;1.83;0.82;;;12.40;75.90;;;;;;4990586;28;20087;-77
2021/05/21 03:56:46;;;;;;;4.70;0.90;;;12.30;76.00;;;;;;4981580;28;20046;-78
2021/05/21 03:59:11;;;;;;;3.55;2.00;;;12.30;76.20;;;;;;4990613;28;20077;-78
2021/05/21 04:01:37;;;;;;;1.42;0.65;;;12.40;76.20;;;;;;4995811;28;20809;-78
2021/05/21 04:04:03;;;;;;;2.35;1.02;;;12.30;76.30;;;;;;4982638;28;20022;-78
2021/05/21 04:06:29;;;;;;;1.38;0.80;;;12.30;76.50;;;;;;4980354;28;20038;-76
2021/05/21 04:08:54;;;;;;;1.45;0.65;;;12.40;76.20;;;;;;4978952;28;20095;-77
2021/05/21 04:11:20;;;;;;;2.97;0.80;;;12.40;76.20;;;;;;4974990;28;20030;-77
2021/05/21 04:13:45;;;;;;;1.20;0.68;;;12.40;76.20;;;;;;4982527;28;20532;-77
2021/05/21 04:16:13;;;;;;;2.90;0.90;;;12.40;76.20;;;;;;4977865;28;20552;-77
2021/05/21 04:18:39;;;;;;;2.90;1.00;;;12.50;76.40;;;;;;4970095;28;20087;-77
2021/05/21 04:21:04;;;;;;;4.07;1.20;;;12.50;76.30;;;;;;4992769;28;20125;-77
2021/05/21 04:23:30;;;;;;;1.65;0.98;;;12.60;76.20;;;;;;4993665;28;20030;-77
2021/05/21 04:25:55;;;;;;;2.70;0.73;;;12.60;76.20;;;;;;4960047;28;20041;-77
2021/05/21 04:28:21;;;;;;;3.72;1.00;;;12.60;76.00;;;;;;4977384;28;20418;-77
2021/05/21 04:30:46;;;;;;;4.88;1.13;;;12.70;76.20;;;;;;4991892;28;22275;-77
2021/05/21 04:33:12;;;;;;;2.85;1.08;;;12.70;76.20;;;;;;4981279;28;20050;-77
2021/05/21 04:35:38;;;;;;;2.45;0.88;;;12.70;76.00;;;;;;4968101;28;20125;-77
2021/05/21 04:38:03;;;;;;;1.52;0.73;;;12.80;76.00;;;;;;4970039;28;20026;-77
2021/05/21 04:40:29;;;;;;;6.20;1.38;;;12.80;75.80;;;;;;4979940;28;20034;-77
2021/05/21 04:42:54;;;;;;;1.67;0.75;;;12.80;75.80;;;;;;4978351;28;20018;-77
2021/05/21 04:45:20;;;;;;;1.75;0.98;;;12.90;75.90;;;;;;4994983;28;20033;-77
2021/05/21 04:47:45;;;;;;;1.45;0.63;;;12.90;75.80;;;;;;4979116;28;20494;-77
2021/05/21 04:50:11;;;;;;;2.17;0.60;;;13.00;75.80;;;;;;4987366;28;20046;-77
2021/05/21 04:52:37;;;;;;;2.15;0.70;;;13.00;75.50;;;;;;4972062;28;20425;-77
2021/05/21 04:55:03;;;;;;;2.33;1.00;;;13.10;75.50;;;;;;4964878;28;20134;-76
2021/05/21 04:57:28;;;;;;;1.73;0.68;;;13.20;75.40;;;;;;4975921;28;20100;-77
2021/05/21 04:59:54;;;;;;;1.17;0.47;;;13.20;75.40;;;;;;4960560;28;20085;-77
2021/05/21 05:02:19;;;;;;;4.70;0.85;;;13.20;75.20;;;;;;4993903;28;20393;-77
2021/05/21 05:04:45;;;;;;;5.03;0.80;;;13.20;75.40;;;;;;4967856;28;20034;-77
2021/05/21 05:07:10;;;;;;;4.97;0.90;;;13.30;75.30;;;;;;4978694;28;20030;-77
2021/05/21 05:09:36;;;;;;;4.82;1.10;;;13.30;75.30;;;;;;4981097;28;20053;-77
2021/05/21 05:12:01;;;;;;;3.25;0.85;;;13.30;75.30;;;;;;4980132;28;20026;-76
2021/05/21 05:14:27;;;;;;;4.30;1.10;;;13.40;75.30;;;;;;4995624;28;20387;-77
2021/05/21 05:16:52;;;;;;;2.63;0.70;;;13.40;75.10;;;;;;4982345;28;20053;-77
2021/05/21 05:19:19;;;;;;;2.10;0.70;;;13.50;75.30;;;;;;4995683;28;20036;-77
2021/05/21 05:21:45;;;;;;;2.80;0.98;;;13.50;74.90;;;;;;5001374;28;20137;-77
2021/05/21 05:24:20;;;;;;;5.25;0.85;;;13.50;75.10;;;;;;5000338;28;20042;-77
2021/05/21 05:26:46;;;;;;;4.37;0.93;;;13.60;75.10;;;;;;4994449;28;20417;-77
2021/05/21 05:29:12;;;;;;;4.05;1.10;;;13.60;74.90;;;;;;4999965;28;20041;-77
2021/05/21 05:31:38;;;;;;;1.88;0.73;;;13.60;74.70;;;;;;5002995;28;20043;-77
2021/05/21 05:34:04;;;;;;;4.30;0.88;;;13.60;74.60;;;;;;4980496;28;20038;-77
2021/05/21 05:36:29;;;;;;;3.67;0.95;;;13.70;74.60;;;;;;4995474;28;20088;-79
2021/05/21 05:38:55;;;;;;;1.02;0.65;;;13.70;74.70;;;;;;4976769;28;20038;-77
2021/05/21 05:41:20;;;;;;;3.75;0.70;;;13.70;74.60;;;;;;4993783;28;20034;-77
2021/05/21 05:43:46;;;;;;;1.50;0.80;;;13.70;74.50;;;;;;4980085;28;20166;-77
2021/05/21 05:46:11;;;;;;;2.33;0.82;;;13.70;74.50;;;;;;4958917;28;20038;-77
2021/05/21 05:48:37;;;;;;;1.73;0.95;;;13.90;74.70;;;;;;4979008;28;20065;-77
2021/05/21 05:51:02;;;;;;;4.05;0.85;;;13.80;74.30;;;;;;4978177;28;20034;-78
2021/05/21 05:53:32;;;;;;;4.18;0.85;;;13.90;74.40;;;;;;5003139;28;20484;-78
2021/05/21 05:55:57;;;;;;;5.93;1.17;;;13.90;74.50;;;;;;4978340;28;20095;-78
2021/05/21 05:58:23;;;;;;;0.63;0.50;;;13.90;74.20;;;;;;5000971;28;20485;-78
2021/05/21 06:00:48;;;;;;;0.60;0.60;;;13.90;74.40;;;;;;4984192;28;20038;-78
2021/05/21 06:03:14;;;;;;;2.90;1.10;;;14.00;74.40;;;;;;4984211;28;20354;-78
2021/05/21 06:05:39;;;;;;;4.47;0.85;;;14.00;74.20;;;;;;4973822;28;20489;-79
2021/05/21 06:08:06;;;;;;;1.80;0.57;;;14.10;74.20;;;;;;4961963;28;20498;-78
2021/05/21 06:10:32;;;;;;;2.20;0.70;;;14.30;73.90;;;;;;4981605;28;20509;-79
2021/05/21 06:13:02;;;;;;;2.40;0.73;;;14.20;73.80;;;;;;4983338;28;20046;-78
2021/05/21 06:15:28;;;;;;;1.92;1.00;;;14.30;73.70;;;;;;4970273;28;20035;-78
2021/05/21 06:17:54;;;;;;;3.50;0.82;;;14.30;73.70;;;;;;4982830;28;20099;-78
2021/05/21 06:20:20;;;;;;;2.58;0.75;;;14.30;73.60;;;;;;4952837;28;22240;-78
2021/05/21 06:22:45;;;;;;;3.78;0.75;;;14.40;73.70;;;;;;4997977;28;20040;-78
2021/05/21 06:25:12;;;;;;;2.40;0.80;;;14.50;73.50;;;;;;4967361;28;20449;-78
2021/05/21 06:27:37;;;;;;;3.25;0.80;;;14.60;73.50;;;;;;4985230;28;20038;-78
2021/05/21 06:30:07;;;;;;;2.35;0.70;;;14.60;73.30;;;;;;4986119;28;20029;-78
2021/05/21 06:32:32;;;;;;;2.45;0.73;;;14.70;73.00;;;;;;4968233;28;20034;-78
2021/05/21 06:34:59;;;;;;;0.77;0.40;;;14.80;72.90;;;;;;4991658;28;20223;-78
2021/05/21 06:37:27;;;;;;;4.35;0.90;;;14.60;72.90;;;;;;4965364;28;20037;-78
2021/05/21 06:39:52;;;;;;;3.03;0.63;;;14.70;73.00;;;;;;4966715;28;20038;-78
2021/05/21 06:42:18;;;;;;;0.50;0.50;;;15.00;73.00;;;;;;4992365;28;20034;-78
2021/05/21 06:44:43;;;;;;;6.07;1.38;;;15.10;71.80;;;;;;4979844;28;20030;-78
2021/05/21 06:47:09;;;;;;;2.72;0.98;;;15.00;72.20;;;;;;4979963;28;20034;-79
2021/05/21 06:49:37;;;;;;;3.17;0.85;;;15.10;71.90;;;;;;4977363;28;20038;-78
2021/05/21 06:52:02;;;;;;;2.60;0.70;;;15.10;71.90;;;;;;4994360;28;20258;-79
2021/05/21 06:54:28;;;;;;;2.92;1.13;;;15.20;71.90;;;;;;4967761;28;20532;-78
2021/05/21 06:56:53;;;;;;;1.67;0.40;;;15.20;71.90;;;;;;4981825;28;20033;-79
2021/05/21 06:59:19;;;;;;;4.22;0.80;;;15.50;71.70;;;;;;4984601;28;20041;-79
2021/05/21 07:01:45;;;;;;;8.40;1.45;;;15.60;71.20;;;;;;4982114;28;20403;-79
2021/05/21 07:04:11;;;;;;;3.15;0.70;;;15.50;71.10;;;;;;4969677;28;20567;-79
2021/05/21 07:06:36;;;;;;;2.08;0.80;;;15.60;70.70;;;;;;4984417;28;20050;-79
2021/05/21 07:09:02;;;;;;;2.38;1.05;;;16.00;70.90;;;;;;4978812;28;20038;-79
2021/05/21 07:11:28;;;;;;;6.07;1.27;;;15.80;71.00;;;;;;4977006;28;20046;-79
2021/05/21 07:13:53;;;;;;;5.20;1.20;;;15.60;70.90;;;;;;4981297;28;20038;-79
2021/05/21 07:16:19;;;;;;;4.53;1.10;;;15.40;70.70;;;;;;4983999;28;20406;-79
2021/05/21 07:18:44;;;;;;;4.60;1.20;;;15.30;71.10;;;;;;4971514;28;20042;-78
2021/05/21 07:21:10;;;;;;;4.28;1.40;;;15.30;71.20;;;;;;4964301;28;20079;-79
2021/05/21 07:23:35;;;;;;;5.03;1.10;;;15.50;71.10;;;;;;4966100;28;20482;-79
2021/05/21 07:26:01;;;;;;;1.85;0.70;;;15.70;70.60;;;;;;4979262;28;20173;-78
2021/05/21 07:28:26;;;;;;;5.68;1.23;;;15.60;70.70;;;;;;4981773;28;20225;-78
2021/05/21 07:30:53;;;;;;;2.88;0.57;;;15.70;70.60;;;;;;4981091;28;20117;-78
2021/05/21 07:33:19;;;;;;;6.13;1.25;;;15.60;70.20;;;;;;4975923;28;20045;-79
2021/05/21 07:35:44;;;;;;;3.25;1.80;;;15.50;70.60;;;;;;4969690;28;20046;-78
2021/05/21 07:38:10;;;;;;;3.83;0.90;;;15.60;70.50;;;;;;4975339;28;20065;-78
2021/05/21 07:40:35;;;;;;;5.45;1.02;;;15.50;70.70;;;;;;4987354;28;20022;-79
2021/05/21 07:43:01;;;;;;;8.25;1.30;;;15.40;70.50;;;;;;4978927;28;20092;-78
2021/05/21 07:45:27;;;;;;;2.85;0.47;;;15.40;70.60;;;;;;4970009;28;20372;-78
2021/05/21 07:47:53;;;;;;;5.35;1.05;;;15.30;70.50;;;;;;4988079;28;20026;-79
2021/05/21 07:50:19;;;;;;;0.98;0.73;;;15.50;69.90;;;;;;4963933;28;20046;-79
2021/05/21 07:52:44;;;;;;;2.30;1.05;;;15.50;69.50;;;;;;4980564;28;20092;-79
2021/05/21 07:55:11;;;;;;;8.30;0.90;;;15.40;69.20;;;;;;4982527;28;20085;-79
2021/05/21 07:57:36;;;;;;;3.78;0.75;;;15.30;69.40;;;;;;4998924;28;20768;-78
2021/05/21 08:00:04;;;;;;;7.82;1.50;;;15.30;69.60;;;;;;4984854;28;20064;-78
2021/05/21 08:02:30;;;;;;;7.40;1.20;;;15.30;69.40;;;;;;4972182;28;20042;-78
2021/05/21 08:04:55;;;;;;;11.82;1.42;;;15.00;68.90;;;;;;4964962;28;20086;-78
2021/05/21 08:07:21;;;;;;;7.18;0.95;;;15.10;68.70;;;;;;4979634;28;20030;-78
2021/05/21 08:09:50;;;;;;;4.97;0.93;;;15.00;69.00;;;;;;4977086;28;20038;-78
2021/05/21 08:12:16;;;;;;;6.38;1.70;;;15.10;69.00;;;;;;4992464;28;20402;-79
2021/05/21 08:14:43;;;;;;;3.42;0.95;;;15.20;68.90;;;;;;4971343;28;20490;-79
2021/05/21 08:17:10;;;;;;;7.30;2.33;;;15.30;67.90;;;;;;4975292;28;20133;-78
2021/05/21 08:19:37;;;;;;;3.35;0.98;;;15.70;67.40;;;;;;4971299;28;20385;-78
2021/05/21 08:22:02;;;;;;;7.35;1.55;;;15.80;65.20;;;;;;4963435;28;20114;-78
2021/05/21 08:24:28;;;;;;;5.18;1.02;;;15.90;64.00;;;;;;4965829;28;20117;-78
2021/05/21 08:26:53;;;;;;;2.08;0.90;;;15.80;63.80;;;;;;4970742;28;20088;-78
2021/05/21 08:29:19;;;;;;;10.60;1.67;;;15.80;64.10;;;;;;4981519;28;20026;-78
2021/05/21 08:31:45;;;;;;;3.67;1.15;;;15.80;63.00;;;;;;4967537;28;20030;-79
2021/05/21 08:34:10;;;;;;;5.03;1.33;;;16.00;63.20;;;;;;4966589;28;20350;-78
2021/05/21 08:36:36;;;;;;;3.47;1.17;;;16.00;63.00;;;;;;4970691;28;20034;-78
2021/05/21 08:39:01;;;;;;;3.45;1.52;;;16.10;62.40;;;;;;4983640;28;20025;-78
2021/05/21 08:41:28;;;;;;;7.30;1.80;;;16.00;62.40;;;;;;4984780;28;20029;-78
2021/05/21 08:43:54;;;;;;;5.18;1.58;;;15.90;60.80;;;;;;4968975;28;20117;-78
2021/05/21 08:46:22;;;;;;;7.75;1.45;;;16.10;61.10;;;;;;4970357;28;20688;-78
2021/05/21 08:48:48;;;;;;;4.47;1.10;;;16.40;60.60;;;;;;4996587;28;20497;-78
2021/05/21 08:51:14;;;;;;;3.63;1.10;;;16.70;59.60;;;;;;4982629;28;20037;-78
2021/05/21 08:53:40;;;;;;;4.97;1.17;;;16.90;59.60;;;;;;4969106;28;20038;-78
2021/05/21 08:56:06;;;;;;;8.15;0.93;;;17.30;58.20;;;;;;4995646;28;20125;-78
2021/05/21 08:58:32;;;;;;;9.98;1.85;;;17.50;56.40;;;;;;4982944;28;20073;-78
2021/05/21 09:00:57;;;;;;;5.10;1.85;;;17.50;54.00;;;;;;4970410;28;20441;-78
2021/05/21 09:03:24;;;;;;;6.65;1.52;;;17.80;54.20;;;;;;4970159;28;20038;-78
2021/05/21 09:06:21;;;;;;;6.75;1.60;;;17.80;52.30;;;;;;4967980;28;20121;-78
2021/05/21 09:08:57;;;;;;;6.15;1.13;;;17.90;52.00;;;;;;4986353;28;20505;-78
2021/05/21 09:11:22;;;;;;;5.88;1.20;;;18.30;52.40;;;;;;4981774;28;20026;-78
2021/05/21 09:13:50;;;;;;;6.78;1.63;;;18.40;52.30;;;;;;5000584;28;20532;-77
2021/05/21 09:16:23;;;;;;;2.47;0.70;;;18.60;51.40;;;;;;4978996;28;20103;-78
2021/05/21 09:19:10;;;;;;;5.90;1.67;;;18.70;51.10;;;;;;4970903;28;20498;-78
2021/05/21 09:21:54;;;;;;;5.63;1.35;;;19.20;51.10;;;;;;4996427;28;20034;-78
2021/05/21 09:24:28;;;;;;;15.38;1.80;;;19.10;50.00;;;;;;4997257;28;20504;-78
2021/05/21 09:26:53;;;;;;;9.38;1.42;;;19.20;50.20;;;;;;4989817;28;20026;-78
2021/05/21 09:29:46;;;;;;;5.40;1.38;;;19.50;51.10;;;;;;4973682;28;20358;-78
2021/05/21 09:32:23;;;;;;;5.15;1.23;;;19.10;51.50;;;;;;4999428;28;20047;-78
2021/05/21 09:35:05;;;;;;;8.43;1.70;;;19.20;51.90;;;;;;4972879;28;20413;-79
2021/05/21 09:37:31;;;;;;;5.65;1.17;;;19.10;50.70;;;;;;4983459;28;20413;-79
2021/05/21 09:40:07;;;;;;;3.33;1.08;;;19.30;50.80;;;;;;4971974;28;20034;-79
2021/05/21 09:42:51;;;;;;;12.23;1.63;;;19.30;50.10;;;;;;4995032;28;20030;-79
2021/05/21 09:45:21;;;;;;;3.72;0.52;;;19.50;50.10;;;;;;4999472;28;20043;-79
2021/05/21 09:47:54;;;;;;;9.80;1.40;;;19.70;49.20;;;;;;4999631;28;20077;-79
2021/05/21 09:50:43;;;;;;;6.00;1.75;;;19.40;48.90;;;;;;4979264;28;20031;-79
2021/05/21 09:53:21;;;;;;;4.05;1.38;;;19.80;48.80;;;;;;4998857;28;20026;-79
2021/05/21 09:55:53;;;;;;;1.95;0.63;;;20.00;48.20;;;;;;4986903;28;20060;-79
2021/05/21 09:58:29;;;;;;;5.53;1.02;;;20.00;47.90;;;;;;4996548;28;20157;-79
2021/05/21 10:01:13;;;;;;;2.95;0.80;;;20.30;49.70;;;;;;4997601;28;20402;-79
2021/05/21 10:03:50;;;;;;;6.30;1.15;;;20.00;48.10;;;;;;4999224;28;20030;-79
2021/05/21 10:06:17;;;;;;;5.07;1.40;;;20.00;48.80;;;;;;4983186;28;20162;-79
2021/05/21 10:08:45;;;;;;;4.57;1.25;;;19.70;48.40;;;;;;4986888;28;20091;-79
2021/05/21 10:11:11;;;;;;;3.13;0.93;;;19.50;48.20;;;;;;4986694;28;20084;-78
2021/05/21 10:13:37;;;;;;;8.45;1.05;;;19.40;49.10;;;;;;4972730;28;20078;-79
2021/05/21 10:16:05;;;;;;;5.03;1.20;;;19.40;48.70;;;;;;4984813;28;20033;-79
2021/05/21 10:18:31;;;;;;;3.13;1.10;;;19.40;48.00;;;;;;5002094;28;20370;-79
2021/05/21 10:20:57;;;;;;;12.40;1.65;;;19.60;47.70;;;;;;4971368;28;20409;-79
2021/05/21 10:23:45;;;;;;;7.50;1.25;;;19.30;46.80;;;;;;4982050;28;20118;-79
2021/05/21 10:26:18;;;;;;;5.43;1.40;;;19.30;46.80;;;;;;4986095;28;20030;-78
2021/05/21 10:28:47;;;;;;;11.68;1.20;;;19.50;47.60;;;;;;4984949;28;20034;-79
2021/05/21 10:31:14;;;;;;;19.20;2.28;;;19.60;47.60;;;;;;4977458;28;20026;-78
2021/05/21 10:33:43;;;;;;;3.75;0.80;;;19.40;47.80;;;;;;4995247;28;20501;-79
2021/05/21 10:36:25;;;;;;;9.85;1.02;;;19.00;48.60;;;;;;4967843;28;20037;-79
2021/05/21 10:39:04;;;;;;;4.38;0.70;;;19.20;48.10;;;;;;5000925;28;20445;-79
2021/05/21 10:41:30;;;;;;;5.32;0.90;;;19.00;47.70;;;;;;4983400;28;20092;-79
2021/05/21 10:43:58;;;;;;;3.72;1.13;;;18.70;48.00;;;;;;4970565;28;20084;-79
2021/05/21 10:46:25;;;;;;;10.27;1.40;;;18.70;48.00;;;;;;4981105;28;20377;-79
2021/05/21 10:48:58;;;;;;;7.50;1.42;;;18.90;47.90;;;;;;4985193;28;20120;-79
2021/05/21 10:51:24;;;;;;;6.15;1.25;;;19.10;48.40;;;;;;4996295;28;20085;-79
2021/05/21 10:54:24;;;;;;;4.43;1.15;;;19.30;48.20;;;;;;4983810;28;20034;-79
2021/05/21 10:56:50;;;;;;;3.28;1.05;;;19.20;47.00;;;;;;4996563;28;20040;-78
2021/05/21 10:59:15;;;;;;;5.22;1.50;;;19.50;46.70;;;;;;4966108;28;20038;-79
2021/05/21 11:01:45;;;;;;;4.15;1.27;;;19.70;46.70;;;;;;4986560;28;20659;-79
2021/05/21 11:04:11;;;;;;;5.55;1.02;;;19.70;46.70;;;;;;4983232;28;20297;-79
2021/05/21 11:06:44;;;;;;;7.15;1.83;;;19.80;45.80;;;;;;4306068;28;10000071;-79
2021/05/21 11:09:13;;;;;;;4.40;1.55;;;19.80;45.50;;;;;;4994121;28;20103;-79
2021/05/21 11:11:54;;;;;;;10.60;1.67;;;20.10;46.70;;;;;;4968487;28;20088;-79
2021/05/21 11:14:44;;;;;;;7.78;1.63;;;20.30;44.90;;;;;;4975977;28;20446;-79
2021/05/21 11:17:14;;;;;;;6.28;1.63;;;20.20;44.70;;;;;;4978744;28;20034;-80
2021/05/21 11:19:44;;;;;;;4.97;0.93;;;20.70;45.50;;;;;;4984532;28;20038;-80
2021/05/21 11:22:23;;;;;;;8.07;1.80;;;20.40;45.50;;;;;;4995470;28;20034;-80
2021/05/21 11:24:54;;;;;;;13.07;1.25;;;20.50;45.00;;;;;;4988912;28;20510;-80
2021/05/21 11:27:20;;;;;;;7.53;1.60;;;20.90;45.00;;;;;;4972506;28;20034;-80
2021/05/21 11:29:50;;;;;;;4.40;1.30;;;20.30;44.70;;;;;;4983300;28;20067;-80
2021/05/21 11:32:16;;;;;;;7.00;1.65;;;20.50;44.70;;;;;;4978185;28;20490;-80
2021/05/21 11:34:42;;;;;;;3.28;1.40;;;21.00;45.10;;;;;;4980233;28;20115;-80
2021/05/21 11:37:08;;;;;;;2.47;0.77;;;21.10;44.40;;;;;;4988840;28;20038;-80
2021/05/21 11:39:36;;;;;;;7.28;1.27;;;21.00;43.90;;;;;;4981450;28;20600;-80
2021/05/21 11:42:05;;;;;;;6.30;1.38;;;21.10;43.90;;;;;;4983618;28;20036;-80
2021/05/21 11:44:31;;;;;;;6.43;1.33;;;20.70;43.90;;;;;;4980312;28;20042;-80
2021/05/21 11:47:02;;;;;;;3.17;1.10;;;21.10;43.50;;;;;;4977839;28;20062;-80
2021/05/21 11:49:28;;;;;;;4.30;1.52;;;20.70;42.90;;;;;;4973109;28;20161;-80
2021/05/21 11:51:58;;;;;;;0.93;0.45;;;20.90;42.30;;;;;;4981406;28;20209;-80
2021/05/21 11:54:24;;;;;;;3.97;0.90;;;21.30;42.90;;;;;;4975230;28;20038;-80
2021/05/21 11:56:50;;;;;;;7.50;1.00;;;21.60;43.00;;;;;;4964714;28;20038;-81
2021/05/21 11:59:18;;;;;;;7.63;1.42;;;21.70;42.70;;;;;;4991736;28;20064;-81
2021/05/21 12:01:51;;;;;;;5.03;1.52;;;21.70;42.60;;;;;;4979521;28;20038;-80
2021/05/21 12:04:17;;;;;;;15.63;1.35;;;21.20;42.00;;;;;;4992750;28;20038;-81
2021/05/21 12:06:44;;;;;;;5.25;1.30;;;21.40;42.80;;;;;;4980611;28;20033;-80
2021/05/21 12:09:11;;;;;;;5.32;1.02;;;21.50;43.00;;;;;;4975188;28;20074;-81
2021/05/21 12:11:36;;;;;;;7.10;1.60;;;21.40;42.80;;;;;;4978209;28;20076;-82
2021/05/21 12:14:03;;;;;;;2.83;0.75;;;21.70;42.90;;;;;;4978340;28;20454;-82
2021/05/21 12:16:30;;;;;;;6.35;1.48;;;21.40;43.30;;;;;;4976545;28;20069;-81
2021/05/21 12:18:56;;;;;;;2.83;0.80;;;21.30;42.80;;;;;;4978732;28;20038;-80
2021/05/21 12:21:28;;;;;;;7.85;1.88;;;21.30;43.30;;;;;;4978955;28;20080;-80
2021/05/21 12:23:56;;;;;;;11.38;0.82;;;21.40;42.50;;;;;;4982596;28;20481;-81
2021/05/21 12:26:22;;;;;;;8.68;1.45;;;21.50;42.70;;;;;;4995567;28;20065;-81
2021/05/21 12:28:49;;;;;;;12.38;1.55;;;21.70;43.10;;;;;;4980073;28;20096;-81
2021/05/21 12:31:15;;;;;;;4.88;0.75;;;21.50;43.40;;;;;;4966164;28;20557;-81
2021/05/21 12:33:41;;;;;;;9.75;1.67;;;21.70;43.10;;;;;;4963642;28;20045;-81
2021/05/21 12:36:12;;;;;;;6.72;0.80;;;21.90;42.50;;;;;;4963313;28;20494;-80
2021/05/21 12:38:48;;;;;;;7.07;1.58;;;22.10;42.00;;;;;;4996087;28;20050;-81
2021/05/21 12:41:14;;;;;;;8.18;1.50;;;21.90;42.10;;;;;;4965749;28;20553;-82
2021/05/21 12:43:39;;;;;;;8.68;1.48;;;22.00;42.80;;;;;;4983177;28;20038;-81
2021/05/21 12:46:07;;;;;;;9.63;1.13;;;21.90;42.70;;;;;;4958951;28;21084;-80